Time,TemperatureF,DewpointF,PressureIn,WindDirection,WindDirectionDegrees,WindSpeedMPH,WindSpeedGustMPH,Humidity,HourlyPrecipIn,Conditions,Clouds,dailyrainin,SoftwareType,DateUTC
2013-05-20 00:08:00,69.1,60.5,29.79,South,180,3.7,-999.0,74,-99.99,,,0.00,Acu-Link.com,2013-05-20 04:08:00,
2013-05-20 00:23:00,68.9,60.3,29.79,SSE,157,4.2,-999.0,74,-99.99,,,0.00,Acu-Link.com,2013-05-20 04:23:00,
2013-05-20 00:39:00,68.2,60.3,29.79,West,270,1.1,-999.0,76,-99.99,,,0.00,Acu-Link.com,2013-05-20 04:39:00,
2013-05-20 00:54:00,67.8,60.0,29.79,SSW,202,1.7,-999.0,76,-99.99,,,0.00,Acu-Link.com,2013-05-20 04:54:00,
2013-05-20 01:09:00,67.5,60.0,29.79,SSW,202,3.2,-999.0,77,-99.99,,,0.00,Acu-Link.com,2013-05-20 05:09:00,
2013-05-20 01:24:00,67.3,59.8,29.79,SE,135,0.0,-999.0,77,-99.99,,,0.00,Acu-Link.com,2013-05-20 05:24:00,
2013-05-20 01:40:00,66.6,59.9,29.78,East,90,2.2,-999.0,79,-99.99,,,0.00,Acu-Link.com,2013-05-20 05:40:00,
2013-05-20 01:55:00,66.2,59.8,29.77,South,180,1.7,-999.0,80,-99.99,,,0.00,Acu-Link.com,2013-05-20 05:55:00,
2013-05-20 02:10:00,66.0,60.0,29.78,SW,225,3.2,-999.0,81,-99.99,,,0.00,Acu-Link.com,2013-05-20 06:10:00,
2013-05-20 02:26:00,65.7,59.7,29.78,South,180,2.2,-999.0,81,-99.99,,,0.00,Acu-Link.com,2013-05-20 06:26:00,
2013-05-20 02:41:00,66.0,60.3,29.76,SSE,157,3.7,-999.0,82,-99.99,,,0.00,Acu-Link.com,2013-05-20 06:41:00,
2013-05-20 02:56:00,66.0,60.0,29.77,WSW,247,1.7,-999.0,81,-99.99,,,0.00,Acu-Link.com,2013-05-20 06:56:00,
2013-05-20 03:12:00,65.7,60.0,29.79,ESE,112,0.0,-999.0,82,-99.99,,,0.00,Acu-Link.com,2013-05-20 07:12:00,
2013-05-20 03:27:00,65.5,60.2,29.78,SSE,157,0.0,-999.0,83,-99.99,,,0.00,Acu-Link.com,2013-05-20 07:27:00,
2013-05-20 03:42:00,65.5,60.5,29.78,South,180,0.0,-999.0,84,-99.99,,,0.00,Acu-Link.com,2013-05-20 07:42:00,
2013-05-20 03:57:00,65.3,60.7,29.78,SSE,157,0.0,-999.0,85,-99.99,,,0.00,Acu-Link.com,2013-05-20 07:57:00,
2013-05-20 04:13:00,65.5,60.9,29.78,South,180,0.0,-999.0,85,-99.99,,,0.00,Acu-Link.com,2013-05-20 08:13:00,
2013-05-20 04:28:00,65.5,60.9,29.78,South,180,1.1,-999.0,85,-99.99,,,0.00,Acu-Link.com,2013-05-20 08:28:00,
2013-05-20 04:44:00,65.7,61.1,29.77,WSW,247,2.7,-999.0,85,-99.99,,,0.00,Acu-Link.com,2013-05-20 08:44:00,
2013-05-20 04:59:00,65.8,61.5,29.76,South,180,1.7,-999.0,86,-99.99,,,0.00,Acu-Link.com,2013-05-20 08:59:00,
2013-05-20 05:14:00,66.0,61.7,29.78,West,270,2.2,-999.0,86,-99.99,,,0.00,Acu-Link.com,2013-05-20 09:14:00,
2013-05-20 05:29:00,65.1,61.1,29.80,NW,315,0.0,-999.0,87,-99.99,,,0.00,Acu-Link.com,2013-05-20 09:29:00,
2013-05-20 05:44:00,64.6,61.3,29.79,ESE,112,0.0,-999.0,89,-99.99,,,0.00,Acu-Link.com,2013-05-20 09:44:00,
2013-05-20 05:59:00,64.6,61.6,29.78,WSW,247,1.1,-999.0,90,-99.99,,,0.00,Acu-Link.com,2013-05-20 09:59:00,
2013-05-20 06:14:00,64.9,61.6,29.78,SSE,157,0.0,-999.0,89,-99.99,,,0.00,Acu-Link.com,2013-05-20 10:14:00,
2013-05-20 06:31:00,65.3,62.0,29.77,SSE,157,0.0,-999.0,89,-99.99,,,0.00,Acu-Link.com,2013-05-20 10:31:00,
2013-05-20 06:46:00,66.0,62.3,29.76,South,180,3.2,-999.0,88,-99.99,,,0.00,Acu-Link.com,2013-05-20 10:46:00,
2013-05-20 07:01:00,66.7,62.7,29.76,SSW,202,2.2,-999.0,87,-99.99,,,0.00,Acu-Link.com,2013-05-20 11:01:00,
2013-05-20 07:17:00,67.8,63.1,29.75,SW,225,4.2,-999.0,85,-99.99,,,0.00,Acu-Link.com,2013-05-20 11:17:00,
2013-05-20 07:32:00,68.7,63.3,29.76,West,270,4.2,-999.0,83,-99.99,,,0.00,Acu-Link.com,2013-05-20 11:32:00,
2013-05-20 07:47:00,69.3,63.6,29.75,South,180,2.2,-999.0,82,-99.99,,,0.00,Acu-Link.com,2013-05-20 11:47:00,
2013-05-20 08:02:00,70.2,63.7,29.75,South,180,4.2,-999.0,80,-99.99,,,0.00,Acu-Link.com,2013-05-20 12:02:00,
2013-05-20 08:18:00,71.2,64.0,29.75,South,180,4.2,-999.0,78,-99.99,,,0.00,Acu-Link.com,2013-05-20 12:18:00,
2013-05-20 08:33:00,72.5,64.5,29.76,WSW,247,4.2,-999.0,76,-99.99,,,0.00,Acu-Link.com,2013-05-20 12:33:00,
2013-05-20 08:48:00,72.3,64.7,29.78,South,180,3.7,-999.0,77,-99.99,,,0.00,Acu-Link.com,2013-05-20 12:48:00,
2013-05-20 09:04:00,71.6,64.4,29.77,SSW,202,5.8,-999.0,78,-99.99,,,0.00,Acu-Link.com,2013-05-20 13:04:00,
2013-05-20 09:19:00,72.0,64.8,29.78,SSW,202,2.2,-999.0,78,-99.99,,,0.00,Acu-Link.com,2013-05-20 13:19:00,
2013-05-20 09:34:00,74.1,65.7,29.78,South,180,2.7,-999.0,75,-99.99,,,0.00,Acu-Link.com,2013-05-20 13:34:00,
2013-05-20 09:49:00,73.2,65.5,29.79,SSW,202,3.7,-999.0,77,-99.99,,,0.00,Acu-Link.com,2013-05-20 13:49:00,
2013-05-20 10:05:00,75.9,66.6,29.78,SSW,202,2.7,-999.0,73,-99.99,,,0.00,Acu-Link.com,2013-05-20 14:05:00,
2013-05-20 10:20:00,77.7,67.1,29.76,SW,225,2.7,-999.0,70,-99.99,,,0.00,Acu-Link.com,2013-05-20 14:20:00,
2013-05-20 10:36:00,79.2,68.1,29.76,South,180,1.7,-999.0,69,-99.99,,,0.00,Acu-Link.com,2013-05-20 14:36:00,
2013-05-20 10:51:00,80.1,68.1,29.76,WSW,247,4.2,-999.0,67,-99.99,,,0.00,Acu-Link.com,2013-05-20 14:51:00,
2013-05-20 11:07:00,80.8,68.4,29.76,West,270,2.7,-999.0,66,-99.99,,,0.00,Acu-Link.com,2013-05-20 15:07:00,
2013-05-20 11:22:00,81.9,68.5,29.76,WSW,247,3.2,-999.0,64,-99.99,,,0.00,Acu-Link.com,2013-05-20 15:22:00,
2013-05-20 11:38:00,82.8,69.4,29.75,WSW,247,2.7,-999.0,64,-99.99,,,0.00,Acu-Link.com,2013-05-20 15:38:00,
2013-05-20 11:53:00,82.9,69.0,29.74,South,180,4.2,-999.0,63,-99.99,,,0.00,Acu-Link.com,2013-05-20 15:53:00,
2013-05-20 12:09:00,83.3,68.9,29.75,South,180,4.2,-999.0,62,-99.99,,,0.00,Acu-Link.com,2013-05-20 16:09:00,
2013-05-20 12:24:00,82.4,68.0,29.74,WSW,247,2.2,-999.0,62,-99.99,,,0.00,Acu-Link.com,2013-05-20 16:24:00,
2013-05-20 12:39:00,83.7,68.8,29.73,South,180,4.2,-999.0,61,-99.99,,,0.00,Acu-Link.com,2013-05-20 16:39:00,
2013-05-20 12:55:00,84.0,69.1,29.72,SSE,157,4.2,-999.0,61,-99.99,,,0.00,Acu-Link.com,2013-05-20 16:55:00,
2013-05-20 13:10:00,85.1,69.1,29.71,South,180,3.2,-999.0,59,-99.99,,,0.00,Acu-Link.com,2013-05-20 17:10:00,
2013-05-20 13:25:00,86.4,67.2,29.72,SE,135,3.2,-999.0,53,-99.99,,,0.00,Acu-Link.com,2013-05-20 17:25:00,
2013-05-20 13:41:00,86.9,67.7,29.72,WSW,247,4.7,-999.0,53,-99.99,,,0.00,Acu-Link.com,2013-05-20 17:41:00,
2013-05-20 13:56:00,86.7,66.9,29.71,SSW,202,4.2,-999.0,52,-99.99,,,0.00,Acu-Link.com,2013-05-20 17:56:00,
2013-05-20 14:11:00,86.5,66.2,29.71,SW,225,4.2,-999.0,51,-99.99,,,0.00,Acu-Link.com,2013-05-20 18:11:00,
2013-05-20 14:26:00,87.6,66.0,29.70,SSW,202,5.3,-999.0,49,-99.99,,,0.00,Acu-Link.com,2013-05-20 18:26:00,
2013-05-20 14:41:00,87.4,66.4,29.70,SW,225,7.3,-999.0,50,-99.99,,,0.00,Acu-Link.com,2013-05-20 18:41:00,
2013-05-20 14:57:00,87.8,66.8,29.69,South,180,7.8,-999.0,50,-99.99,,,0.00,Acu-Link.com,2013-05-20 18:57:00,
2013-05-20 15:12:00,89.2,66.3,29.68,West,270,5.8,-999.0,47,-99.99,,,0.00,Acu-Link.com,2013-05-20 19:12:00,
2013-05-20 15:27:00,88.0,65.8,29.66,SW,225,7.3,-999.0,48,-99.99,,,0.00,Acu-Link.com,2013-05-20 19:27:00,
2013-05-20 15:43:00,88.9,65.4,29.65,SW,225,5.8,-999.0,46,-99.99,,,0.00,Acu-Link.com,2013-05-20 19:43:00,
2013-05-20 15:58:00,88.9,65.4,29.64,WSW,247,6.3,-999.0,46,-99.99,,,0.00,Acu-Link.com,2013-05-20 19:58:00,
2013-05-20 16:21:00,89.1,65.0,29.63,South,180,4.7,-999.0,45,-99.99,,,0.00,Acu-Link.com,2013-05-20 20:21:00,
2013-05-20 16:36:00,88.3,64.2,29.63,SW,225,7.8,-999.0,45,-99.99,,,0.00,Acu-Link.com,2013-05-20 20:36:00,
2013-05-20 16:51:00,88.7,64.6,29.63,SSW,202,4.7,-999.0,45,-99.99,,,0.00,Acu-Link.com,2013-05-20 20:51:00,
2013-05-20 17:06:00,88.9,64.1,29.64,SSE,157,8.3,-999.0,44,-99.99,,,0.00,Acu-Link.com,2013-05-20 21:06:00,
2013-05-20 17:22:00,87.8,63.1,29.64,WSW,247,4.7,-999.0,44,-99.99,,,0.00,Acu-Link.com,2013-05-20 21:22:00,
2013-05-20 17:37:00,87.6,63.6,29.64,West,270,3.2,-999.0,45,-99.99,,,0.00,Acu-Link.com,2013-05-20 21:37:00,
2013-05-20 17:52:00,87.8,63.1,29.64,WNW,292,4.2,-999.0,44,-99.99,,,0.00,Acu-Link.com,2013-05-20 21:52:00,
2013-05-20 18:07:00,87.3,64.0,29.63,South,180,3.2,-999.0,46,-99.99,,,0.00,Acu-Link.com,2013-05-20 22:07:00,
2013-05-20 18:22:00,86.5,63.8,29.64,SW,225,5.8,-999.0,47,-99.99,,,0.00,Acu-Link.com,2013-05-20 22:22:00,
2013-05-20 18:38:00,86.5,63.2,29.65,West,270,5.8,-999.0,46,-99.99,,,0.00,Acu-Link.com,2013-05-20 22:38:00,
2013-05-20 18:53:00,84.9,62.4,29.66,SW,225,4.7,-999.0,47,-99.99,,,0.00,Acu-Link.com,2013-05-20 22:53:00,
2013-05-20 19:08:00,68.9,61.4,29.70,NNE,22,11.4,-999.0,77,-99.99,,,0.00,Acu-Link.com,2013-05-20 23:08:00,
2013-05-20 19:24:00,68.5,63.5,29.68,West,270,0.0,-999.0,84,-99.99,,,0.07,Acu-Link.com,2013-05-20 23:24:00,
2013-05-20 19:39:00,68.2,65.1,29.68,South,180,0.0,-999.0,90,-99.99,,,0.07,Acu-Link.com,2013-05-20 23:39:00,
2013-05-20 19:54:00,68.0,65.0,29.67,South,180,0.0,-999.0,90,-99.99,,,0.07,Acu-Link.com,2013-05-20 23:54:00,
2013-05-20 20:09:00,68.0,65.3,29.67,West,270,0.0,-999.0,91,-99.99,,,0.07,Acu-Link.com,2013-05-21 00:09:00,
2013-05-20 20:25:00,67.8,64.8,29.65,West,270,0.0,-999.0,90,-99.99,,,0.07,Acu-Link.com,2013-05-21 00:25:00,
2013-05-20 20:40:00,67.6,64.6,29.66,NNE,22,0.0,-999.0,90,-99.99,,,0.07,Acu-Link.com,2013-05-21 00:40:00,
2013-05-20 20:56:00,67.3,64.9,29.66,SW,225,0.0,-999.0,92,-99.99,,,0.07,Acu-Link.com,2013-05-21 00:56:00,
2013-05-20 21:11:00,66.9,64.8,29.67,NNW,337,0.0,-999.0,93,-99.99,,,0.07,Acu-Link.com,2013-05-21 01:11:00,
2013-05-20 21:27:00,66.4,64.6,29.68,East,90,0.0,-999.0,94,-99.99,,,0.07,Acu-Link.com,2013-05-21 01:27:00,
2013-05-20 21:42:00,66.2,64.4,29.67,WSW,247,0.0,-999.0,94,-99.99,,,0.07,Acu-Link.com,2013-05-21 01:42:00,
2013-05-20 21:57:00,65.7,63.9,29.68,SW,225,0.0,-999.0,94,-99.99,,,0.07,Acu-Link.com,2013-05-21 01:57:00,
2013-05-20 22:12:00,65.5,63.7,29.68,NE,45,0.0,-999.0,94,-99.99,,,0.07,Acu-Link.com,2013-05-21 02:12:00,
2013-05-20 22:28:00,65.1,63.3,29.69,South,180,0.0,-999.0,94,-99.99,,,0.07,Acu-Link.com,2013-05-21 02:28:00,
2013-05-20 22:43:00,65.1,63.3,29.69,West,270,0.0,-999.0,94,-99.99,,,0.07,Acu-Link.com,2013-05-21 02:43:00,
2013-05-20 22:58:00,64.6,63.1,29.69,WNW,292,0.0,-999.0,95,-99.99,,,0.07,Acu-Link.com,2013-05-21 02:58:00,
2013-05-20 23:14:00,64.4,62.9,29.69,ESE,112,0.0,-999.0,95,-99.99,,,0.07,Acu-Link.com,2013-05-21 03:14:00,
2013-05-20 23:29:00,64.4,63.2,29.68,NE,45,0.0,-999.0,96,-99.99,,,0.07,Acu-Link.com,2013-05-21 03:29:00,
2013-05-20 23:45:00,64.4,63.2,29.69,SSW,202,0.0,-999.0,96,-99.99,,,0.07,Acu-Link.com,2013-05-21 03:45:00,